sensor_id;sensor_type;location;lat;lon;timestamp;pressure;altitude;pressure_sealevel;temperature;humidity
19884;BME280;10104;50.732;10.174;2023-05-01T00:01:33;98089.00;;;8.29;65.90
19884;BME280;10104;50.732;10.174;2023-05-01T00:03:54;98083.25;;;8.26;65.82
19884;BME280;10104;50.732;10.174;2023-05-01T00:06:16;98087.69;;;8.41;64.88
19884;BME280;10104;50.732;10.174;2023-05-01T00:08:38;98091.53;;;8.15;65.75
19884;BME280;10104;50.732;10.174;2023-05-01T00:11:03;98082.91;;;8.29;65.22
19884;BME280;10104;50.732;10.174;2023-05-01T00:13:25;98081.75;;;8.39;64.56
19884;BME280;10104;50.732;10.174;2023-05-01T00:15:48;98080.59;;;8.34;64.13
19884;BME280;10104;50.732;10.174;2023-05-01T00:18:09;98080.81;;;8.32;63.53
19884;BME280;10104;50.732;10.174;2023-05-01T00:20:31;98071.69;;;8.35;63.32
19884;BME280;10104;50.732;10.174;2023-05-01T00:22:53;98077.81;;;8.35;63.55
19884;BME280;10104;50.732;10.174;2023-05-01T00:25:14;98071.22;;;8.31;64.65
19884;BME280;10104;50.732;10.174;2023-05-01T00:27:36;98077.66;;;8.21;65.48
19884;BME280;10104;50.732;10.174;2023-05-01T00:29:57;98068.28;;;8.10;66.27
19884;BME280;10104;50.732;10.174;2023-05-01T00:32:19;98068.78;;;8.13;65.48
19884;BME280;10104;50.732;10.174;2023-05-01T00:34:41;98070.28;;;8.00;67.21
19884;BME280;10104;50.732;10.174;2023-05-01T00:37:02;98058.28;;;7.81;68.09
19884;BME280;10104;50.732;10.174;2023-05-01T00:39:24;98053.31;;;7.94;66.29
19884;BME280;10104;50.732;10.174;2023-05-01T00:41:45;98060.56;;;8.00;65.51
19884;BME280;10104;50.732;10.174;2023-05-01T00:44:07;98047.84;;;8.04;65.00
19884;BME280;10104;50.732;10.174;2023-05-01T00:46:29;98053.78;;;8.06;64.94
19884;BME280;10104;50.732;10.174;2023-05-01T00:48:51;98043.69;;;8.18;64.79
19884;BME280;10104;50.732;10.174;2023-05-01T00:51:13;98044.38;;;8.20;64.67
19884;BME280;10104;50.732;10.174;2023-05-01T00:53:35;98044.59;;;7.86;67.96
19884;BME280;10104;50.732;10.174;2023-05-01T00:55:57;98039.34;;;7.78;68.12
19884;BME280;10104;50.732;10.174;2023-05-01T00:58:19;98043.94;;;7.84;67.54
19884;BME280;10104;50.732;10.174;2023-05-01T01:00:41;98038.47;;;7.93;66.24
19884;BME280;10104;50.732;10.174;2023-05-01T01:03:03;98036.50;;;7.95;65.57
19884;BME280;10104;50.732;10.174;2023-05-01T01:05:27;98028.25;;;7.90;66.40
19884;BME280;10104;50.732;10.174;2023-05-01T01:10:29;98027.00;;;7.70;68.80
19884;BME280;10104;50.732;10.174;2023-05-01T01:16:01;98017.94;;;7.64;68.61
19884;BME280;10104;50.732;10.174;2023-05-01T01:18:39;98021.72;;;7.70;67.08
19884;BME280;10104;50.732;10.174;2023-05-01T01:29:25;98003.28;;;7.70;66.43
19884;BME280;10104;50.732;10.174;2023-05-01T01:35:02;98011.84;;;7.31;69.86
19884;BME280;10104;50.732;10.174;2023-05-01T01:37:30;97994.41;;;7.39;69.33
19884;BME280;10104;50.732;10.174;2023-05-01T01:42:21;97998.50;;;7.41;68.42
19884;BME280;10104;50.732;10.174;2023-05-01T01:44:50;97990.94;;;7.38;69.07
19884;BME280;10104;50.732;10.174;2023-05-01T01:47:13;97989.97;;;7.39;69.55
19884;BME280;10104;50.732;10.174;2023-05-01T01:49:39;97991.78;;;7.39;69.75
19884;BME280;10104;50.732;10.174;2023-05-01T01:52:04;97989.16;;;7.39;68.92
19884;BME280;10104;50.732;10.174;2023-05-01T01:54:32;97976.78;;;7.39;68.35
19884;BME280;10104;50.732;10.174;2023-05-01T01:56:56;97976.94;;;7.54;68.48
19884;BME280;10104;50.732;10.174;2023-05-01T01:59:20;97977.63;;;7.40;68.75
19884;BME280;10104;50.732;10.174;2023-05-01T02:01:43;97979.44;;;7.39;68.44
19884;BME280;10104;50.732;10.174;2023-05-01T02:04:07;97968.38;;;7.44;67.86
19884;BME280;10104;50.732;10.174;2023-05-01T02:06:31;97968.56;;;7.34;68.97
19884;BME280;10104;50.732;10.174;2023-05-01T02:08:55;97968.22;;;7.37;68.85
19884;BME280;10104;50.732;10.174;2023-05-01T02:11:18;97963.63;;;7.23;69.79
19884;BME280;10104;50.732;10.174;2023-05-01T02:13:42;97961.47;;;7.35;68.87
19884;BME280;10104;50.732;10.174;2023-05-01T02:16:05;97961.66;;;7.33;68.44
19884;BME280;10104;50.732;10.174;2023-05-01T02:18:27;97956.72;;;7.30;68.13
19884;BME280;10104;50.732;10.174;2023-05-01T02:20:50;97953.28;;;7.21;69.79
19884;BME280;10104;50.732;10.174;2023-05-01T02:23:12;97952.28;;;7.14;70.04
19884;BME280;10104;50.732;10.174;2023-05-01T02:25:35;97952.75;;;7.10;70.78
19884;BME280;10104;50.732;10.174;2023-05-01T02:28:01;97945.53;;;7.20;69.23
19884;BME280;10104;50.732;10.174;2023-05-01T02:30:23;97958.34;;;7.23;68.94
19884;BME280;10104;50.732;10.174;2023-05-01T02:32:45;97950.78;;;7.20;69.72
19884;BME280;10104;50.732;10.174;2023-05-01T02:35:07;97944.03;;;7.25;68.54
19884;BME280;10104;50.732;10.174;2023-05-01T02:37:28;97943.22;;;7.17;69.49
19884;BME280;10104;50.732;10.174;2023-05-01T02:39:51;97939.59;;;6.94;71.78
19884;BME280;10104;50.732;10.174;2023-05-01T02:42:14;97943.41;;;6.91;71.94
19884;BME280;10104;50.732;10.174;2023-05-01T02:44:53;97938.94;;;7.00;70.17
19884;BME280;10104;50.732;10.174;2023-05-01T02:47:19;97938.63;;;7.03;69.54
19884;BME280;10104;50.732;10.174;2023-05-01T02:49:43;97928.94;;;7.03;69.81
19884;BME280;10104;50.732;10.174;2023-05-01T02:52:09;97930.06;;;7.01;70.62
19884;BME280;10104;50.732;10.174;2023-05-01T02:54:31;97916.06;;;7.00;70.31
19884;BME280;10104;50.732;10.174;2023-05-01T02:56:54;97919.03;;;6.89;72.14
19884;BME280;10104;50.732;10.174;2023-05-01T02:59:16;97917.38;;;6.80;72.24
19884;BME280;10104;50.732;10.174;2023-05-01T03:01:37;97922.81;;;6.70;72.10
19884;BME280;10104;50.732;10.174;2023-05-01T03:04:00;97913.28;;;6.77;70.45
19884;BME280;10104;50.732;10.174;2023-05-01T03:06:21;97908.66;;;6.79;70.29
19884;BME280;10104;50.732;10.174;2023-05-01T03:08:43;97915.09;;;6.85;70.06
19884;BME280;10104;50.732;10.174;2023-05-01T03:11:06;97913.75;;;6.81;69.70
19884;BME280;10104;50.732;10.174;2023-05-01T03:13:27;97907.38;;;6.83;69.80
19884;BME280;10104;50.732;10.174;2023-05-01T03:15:49;97910.47;;;6.87;69.66
19884;BME280;10104;50.732;10.174;2023-05-01T03:18:10;97912.63;;;6.83;69.54
19884;BME280;10104;50.732;10.174;2023-05-01T03:20:32;97906.88;;;6.96;69.35
19884;BME280;10104;50.732;10.174;2023-05-01T03:22:54;97903.09;;;6.90;69.44
19884;BME280;10104;50.732;10.174;2023-05-01T03:25:16;97909.81;;;6.69;71.59
19884;BME280;10104;50.732;10.174;2023-05-01T03:27:38;97909.78;;;6.44;72.16
19884;BME280;10104;50.732;10.174;2023-05-01T03:29:59;97907.47;;;6.49;71.97
19884;BME280;10104;50.732;10.174;2023-05-01T03:32:21;97901.06;;;6.44;72.17
19884;BME280;10104;50.732;10.174;2023-05-01T03:34:43;97898.78;;;6.57;70.81
19884;BME280;10104;50.732;10.174;2023-05-01T03:37:06;97905.34;;;6.61;70.25
19884;BME280;10104;50.732;10.174;2023-05-01T03:39:27;97888.28;;;6.65;69.91
19884;BME280;10104;50.732;10.174;2023-05-01T03:41:49;97885.31;;;6.60;70.23
19884;BME280;10104;50.732;10.174;2023-05-01T03:44:10;97886.13;;;6.53;71.18
19884;BME280;10104;50.732;10.174;2023-05-01T03:46:31;97888.56;;;6.38;73.63
19884;BME280;10104;50.732;10.174;2023-05-01T03:48:53;97886.94;;;6.45;71.59
19884;BME280;10104;50.732;10.174;2023-05-01T03:51:14;97889.06;;;6.49;71.36
19884;BME280;10104;50.732;10.174;2023-05-01T03:53:37;97885.81;;;6.47;71.69
19884;BME280;10104;50.732;10.174;2023-05-01T03:55:59;97882.34;;;6.47;72.15
19884;BME280;10104;50.732;10.174;2023-05-01T03:58:20;97885.09;;;6.37;72.13
19884;BME280;10104;50.732;10.174;2023-05-01T04:00:43;97884.31;;;6.45;71.21
19884;BME280;10104;50.732;10.174;2023-05-01T04:03:04;97880.19;;;6.50;70.55
19884;BME280;10104;50.732;10.174;2023-05-01T04:05:26;97881.53;;;6.63;70.36
19884;BME280;10104;50.732;10.174;2023-05-01T04:07:48;97887.41;;;6.48;73.16
19884;BME280;10104;50.732;10.174;2023-05-01T04:10:09;97882.13;;;6.32;73.66
19884;BME280;10104;50.732;10.174;2023-05-01T04:12:31;97876.56;;;6.43;73.49
19884;BME280;10104;50.732;10.174;2023-05-01T04:14:52;97881.81;;;6.27;74.85
19884;BME280;10104;50.732;10.174;2023-05-01T04:17:14;97879.88;;;6.45;73.17
19884;BME280;10104;50.732;10.174;2023-05-01T04:19:35;97877.41;;;6.52;72.52
19884;BME280;10104;50.732;10.174;2023-05-01T04:21:58;97879.34;;;6.34;75.16
19884;BME280;10104;50.732;10.174;2023-05-01T04:24:19;97879.03;;;6.45;73.19
19884;BME280;10104;50.732;10.174;2023-05-01T04:26:41;97867.03;;;6.50;73.50
19884;BME280;10104;50.732;10.174;2023-05-01T04:29:03;97873.31;;;6.41;76.59
19884;BME280;10104;50.732;10.174;2023-05-01T04:31:25;97879.88;;;6.45;75.28
19884;BME280;10104;50.732;10.174;2023-05-01T04:33:46;97883.34;;;6.54;74.38
19884;BME280;10104;50.732;10.174;2023-05-01T04:36:08;97870.66;;;6.74;73.16
19884;BME280;10104;50.732;10.174;2023-05-01T04:38:29;97871.66;;;6.73;74.52
19884;BME280;10104;50.732;10.174;2023-05-01T04:40:51;97877.91;;;6.80;74.69
19884;BME280;10104;50.732;10.174;2023-05-01T04:43:12;97880.56;;;6.96;73.17
19884;BME280;10104;50.732;10.174;2023-05-01T04:45:34;97871.97;;;6.86;75.52
19884;BME280;10104;50.732;10.174;2023-05-01T04:47:55;97876.28;;;6.95;74.67
19884;BME280;10104;50.732;10.174;2023-05-01T04:50:17;97872.47;;;6.98;75.51
19884;BME280;10104;50.732;10.174;2023-05-01T04:52:38;97870.97;;;7.11;73.43
19884;BME280;10104;50.732;10.174;2023-05-01T04:55:00;97876.91;;;7.13;74.51
19884;BME280;10104;50.732;10.174;2023-05-01T04:57:22;97880.38;;;7.22;74.48
19884;BME280;10104;50.732;10.174;2023-05-01T04:59:43;97873.75;;;7.34;73.74
19884;BME280;10104;50.732;10.174;2023-05-01T05:02:05;97873.88;;;7.49;72.88
19884;BME280;10104;50.732;10.174;2023-05-01T05:04:26;97880.78;;;7.58;72.11
19884;BME280;10104;50.732;10.174;2023-05-01T05:06:48;97877.25;;;7.73;71.90
19884;BME280;10104;50.732;10.174;2023-05-01T05:09:09;97875.88;;;7.86;74.37
19884;BME280;10104;50.732;10.174;2023-05-01T05:11:31;97874.91;;;7.79;74.59
19884;BME280;10104;50.732;10.174;2023-05-01T05:13:52;97878.81;;;7.91;73.36
19884;BME280;10104;50.732;10.174;2023-05-01T05:16:14;97877.06;;;7.83;75.08
19884;BME280;10104;50.732;10.174;2023-05-01T05:18:36;97871.00;;;8.05;73.56
19884;BME280;10104;50.732;10.174;2023-05-01T05:20:57;97869.16;;;8.14;73.27
19884;BME280;10104;50.732;10.174;2023-05-01T05:23:20;97871.72;;;8.30;72.36
19884;BME280;10104;50.732;10.174;2023-05-01T05:25:41;97871.44;;;8.48;72.05
19884;BME280;10104;50.732;10.174;2023-05-01T05:28:03;97873.91;;;8.49;75.09
19884;BME280;10104;50.732;10.174;2023-05-01T05:30:25;97866.69;;;8.66;73.06
19884;BME280;10104;50.732;10.174;2023-05-01T05:32:47;97871.06;;;8.82;73.68
19884;BME280;10104;50.732;10.174;2023-05-01T05:35:08;97865.91;;;9.03;72.39
19884;BME280;10104;50.732;10.174;2023-05-01T05:37:30;97863.41;;;9.24;71.40
19884;BME280;10104;50.732;10.174;2023-05-01T05:39:51;97865.78;;;9.34;72.55
19884;BME280;10104;50.732;10.174;2023-05-01T05:42:13;97856.13;;;9.41;72.63
19884;BME280;10104;50.732;10.174;2023-05-01T05:44:35;97850.13;;;9.62;72.09
19884;BME280;10104;50.732;10.174;2023-05-01T05:46:56;97853.28;;;9.57;76.12
19884;BME280;10104;50.732;10.174;2023-05-01T05:49:18;97853.94;;;9.74;74.83
19884;BME280;10104;50.732;10.174;2023-05-01T05:51:39;97850.78;;;10.00;72.31
19884;BME280;10104;50.732;10.174;2023-05-01T05:54:01;97843.13;;;10.20;71.14
19884;BME280;10104;50.732;10.174;2023-05-01T05:56:22;97849.78;;;10.30;71.44
19884;BME280;10104;50.732;10.174;2023-05-01T05:58:44;97841.25;;;10.35;72.09
19884;BME280;10104;50.732;10.174;2023-05-01T06:01:06;97848.13;;;10.50;71.72
19884;BME280;10104;50.732;10.174;2023-05-01T06:03:29;97844.28;;;10.74;71.62
19884;BME280;10104;50.732;10.174;2023-05-01T06:05:51;97838.72;;;10.90;71.25
19884;BME280;10104;50.732;10.174;2023-05-01T06:08:13;97839.38;;;10.99;69.51
19884;BME280;10104;50.732;10.174;2023-05-01T06:10:35;97837.72;;;11.19;69.70
19884;BME280;10104;50.732;10.174;2023-05-01T06:12:57;97840.75;;;11.44;68.70
19884;BME280;10104;50.732;10.174;2023-05-01T06:15:35;97837.81;;;11.67;68.57
19884;BME280;10104;50.732;10.174;2023-05-01T06:17:57;97835.25;;;11.80;68.59
19884;BME280;10104;50.732;10.174;2023-05-01T06:20:19;97832.81;;;11.85;68.73
19884;BME280;10104;50.732;10.174;2023-05-01T06:22:40;97830.59;;;11.89;70.55
19884;BME280;10104;50.732;10.174;2023-05-01T06:25:02;97827.34;;;11.93;70.35
19884;BME280;10104;50.732;10.174;2023-05-01T06:27:24;97832.56;;;12.21;68.22
19884;BME280;10104;50.732;10.174;2023-05-01T06:29:45;97830.34;;;12.38;67.30
19884;BME280;10104;50.732;10.174;2023-05-01T06:32:07;97819.97;;;12.63;66.80
19884;BME280;10104;50.732;10.174;2023-05-01T06:34:29;97825.91;;;12.78;65.36
19884;BME280;10104;50.732;10.174;2023-05-01T06:36:50;97818.97;;;13.03;65.29
19884;BME280;10104;50.732;10.174;2023-05-01T06:39:12;97822.44;;;13.36;64.65
19884;BME280;10104;50.732;10.174;2023-05-01T06:41:33;97819.97;;;13.48;64.05
19884;BME280;10104;50.732;10.174;2023-05-01T06:43:56;97818.47;;;13.65;63.09
19884;BME280;10104;50.732;10.174;2023-05-01T06:46:18;97821.53;;;13.75;62.32
19884;BME280;10104;50.732;10.174;2023-05-01T06:48:40;97814.28;;;13.96;59.63
19884;BME280;10104;50.732;10.174;2023-05-01T06:51:01;97818.56;;;14.03;59.28
19884;BME280;10104;50.732;10.174;2023-05-01T06:53:23;97812.16;;;14.17;55.90
19884;BME280;10104;50.732;10.174;2023-05-01T06:55:44;97810.28;;;14.63;57.45
19884;BME280;10104;50.732;10.174;2023-05-01T06:58:06;97815.28;;;14.77;55.58
19884;BME280;10104;50.732;10.174;2023-05-01T07:00:43;97810.41;;;14.99;56.09
19884;BME280;10104;50.732;10.174;2023-05-01T07:03:05;97814.09;;;15.23;53.80
19884;BME280;10104;50.732;10.174;2023-05-01T07:05:27;97811.81;;;15.45;53.45
19884;BME280;10104;50.732;10.174;2023-05-01T07:07:48;97802.94;;;15.69;52.79
19884;BME280;10104;50.732;10.174;2023-05-01T07:10:20;97795.41;;;15.84;51.04
19884;BME280;10104;50.732;10.174;2023-05-01T07:12:42;97799.59;;;16.10;49.95
19884;BME280;10104;50.732;10.174;2023-05-01T07:15:04;97797.75;;;16.10;48.22
19884;BME280;10104;50.732;10.174;2023-05-01T07:17:26;97800.78;;;16.44;49.80
19884;BME280;10104;50.732;10.174;2023-05-01T07:19:47;97795.78;;;16.77;49.76
19884;BME280;10104;50.732;10.174;2023-05-01T07:22:10;97795.44;;;16.85;48.61
19884;BME280;10104;50.732;10.174;2023-05-01T07:24:32;97790.47;;;17.12;48.21
19884;BME280;10104;50.732;10.174;2023-05-01T07:26:54;97789.94;;;16.69;46.19
19884;BME280;10104;50.732;10.174;2023-05-01T07:29:16;97788.44;;;16.73;48.08
19884;BME280;10104;50.732;10.174;2023-05-01T07:31:38;97790.75;;;16.69;49.34
19884;BME280;10104;50.732;10.174;2023-05-01T07:34:02;97781.63;;;17.00;48.41
19884;BME280;10104;50.732;10.174;2023-05-01T07:36:24;97767.31;;;17.18;47.98
19884;BME280;10104;50.732;10.174;2023-05-01T07:38:46;97767.28;;;17.41;47.07
19884;BME280;10104;50.732;10.174;2023-05-01T07:41:07;97766.00;;;17.67;46.69
19884;BME280;10104;50.732;10.174;2023-05-01T07:43:29;97767.34;;;17.93;46.22
19884;BME280;10104;50.732;10.174;2023-05-01T07:45:58;97760.81;;;18.00;46.22
19884;BME280;10104;50.732;10.174;2023-05-01T07:48:20;97756.94;;;18.08;47.02
19884;BME280;10104;50.732;10.174;2023-05-01T07:50:42;97760.25;;;17.87;45.16
19884;BME280;10104;50.732;10.174;2023-05-01T07:53:03;97760.53;;;18.13;45.15
19884;BME280;10104;50.732;10.174;2023-05-01T07:55:25;97755.44;;;18.29;45.50
19884;BME280;10104;50.732;10.174;2023-05-01T07:57:47;97753.88;;;18.61;44.94
19884;BME280;10104;50.732;10.174;2023-05-01T08:00:09;97753.50;;;18.69;43.37
19884;BME280;10104;50.732;10.174;2023-05-01T08:02:30;97750.06;;;19.07;43.73
19884;BME280;10104;50.732;10.174;2023-05-01T08:04:52;97750.31;;;19.06;44.40
19884;BME280;10104;50.732;10.174;2023-05-01T08:07:14;97748.03;;;18.97;42.42
19884;BME280;10104;50.732;10.174;2023-05-01T08:09:35;97744.16;;;19.27;42.61
19884;BME280;10104;50.732;10.174;2023-05-01T08:11:57;97749.00;;;19.25;43.79
19884;BME280;10104;50.732;10.174;2023-05-01T08:14:18;97745.81;;;19.28;43.04
19884;BME280;10104;50.732;10.174;2023-05-01T08:16:40;97740.56;;;19.38;41.75
19884;BME280;10104;50.732;10.174;2023-05-01T08:19:01;97739.41;;;19.51;42.29
19884;BME280;10104;50.732;10.174;2023-05-01T08:21:23;97747.56;;;19.56;42.41
19884;BME280;10104;50.732;10.174;2023-05-01T08:23:44;97743.59;;;19.63;41.72
19884;BME280;10104;50.732;10.174;2023-05-01T08:26:06;97737.69;;;19.83;41.82
19884;BME280;10104;50.732;10.174;2023-05-01T08:28:27;97746.56;;;20.05;41.51
19884;BME280;10104;50.732;10.174;2023-05-01T08:30:49;97749.28;;;20.32;40.94
19884;BME280;10104;50.732;10.174;2023-05-01T08:33:10;97742.88;;;20.65;40.17
19884;BME280;10104;50.732;10.174;2023-05-01T08:35:32;97742.19;;;20.48;40.63
19884;BME280;10104;50.732;10.174;2023-05-01T08:37:53;97738.84;;;21.05;39.12
19884;BME280;10104;50.732;10.174;2023-05-01T08:40:16;97744.97;;;20.95;39.92
19884;BME280;10104;50.732;10.174;2023-05-01T08:42:38;97742.56;;;21.30;40.21
19884;BME280;10104;50.732;10.174;2023-05-01T08:45:00;97743.09;;;21.27;39.91
19884;BME280;10104;50.732;10.174;2023-05-01T08:47:21;97737.47;;;21.34;39.37
19884;BME280;10104;50.732;10.174;2023-05-01T08:49:44;97732.31;;;21.27;40.34
19884;BME280;10104;50.732;10.174;2023-05-01T08:52:06;97732.44;;;21.48;39.15
19884;BME280;10104;50.732;10.174;2023-05-01T08:54:30;97733.28;;;21.58;38.61
19884;BME280;10104;50.732;10.174;2023-05-01T08:56:52;97730.06;;;21.61;38.54
19884;BME280;10104;50.732;10.174;2023-05-01T08:59:16;97722.72;;;22.09;37.38
19884;BME280;10104;50.732;10.174;2023-05-01T09:01:38;97721.41;;;22.47;36.70
19884;BME280;10104;50.732;10.174;2023-05-01T09:04:02;97721.66;;;22.15;36.93
19884;BME280;10104;50.732;10.174;2023-05-01T09:06:24;97723.78;;;22.08;37.25
19884;BME280;10104;50.732;10.174;2023-05-01T09:08:48;97714.06;;;22.07;37.30
19884;BME280;10104;50.732;10.174;2023-05-01T09:11:10;97729.81;;;22.45;36.84
19884;BME280;10104;50.732;10.174;2023-05-01T09:13:32;97728.19;;;22.70;36.04
19884;BME280;10104;50.732;10.174;2023-05-01T09:15:53;97726.84;;;22.52;36.26
19884;BME280;10104;50.732;10.174;2023-05-01T09:18:15;97719.03;;;22.91;35.71
19884;BME280;10104;50.732;10.174;2023-05-01T09:20:37;97711.19;;;22.99;34.35
19884;BME280;10104;50.732;10.174;2023-05-01T09:22:59;97718.50;;;22.79;36.27
19884;BME280;10104;50.732;10.174;2023-05-01T09:25:20;97720.06;;;23.30;34.82
19884;BME280;10104;50.732;10.174;2023-05-01T09:27:42;97717.06;;;23.47;34.96
19884;BME280;10104;50.732;10.174;2023-05-01T09:30:05;97711.38;;;23.54;34.40
19884;BME280;10104;50.732;10.174;2023-05-01T09:32:27;97711.16;;;23.25;34.44
19884;BME280;10104;50.732;10.174;2023-05-01T09:34:50;97704.41;;;23.22;34.18
19884;BME280;10104;50.732;10.174;2023-05-01T09:37:30;97701.13;;;23.35;34.46
19884;BME280;10104;50.732;10.174;2023-05-01T09:40:08;97700.38;;;23.94;34.22
19884;BME280;10104;50.732;10.174;2023-05-01T09:42:31;97692.13;;;24.14;32.63
19884;BME280;10104;50.732;10.174;2023-05-01T09:44:53;97697.69;;;24.43;33.55
19884;BME280;10104;50.732;10.174;2023-05-01T09:47:20;97698.84;;;24.27;31.92
19884;BME280;10104;50.732;10.174;2023-05-01T09:49:45;97700.66;;;24.76;32.49
19884;BME280;10104;50.732;10.174;2023-05-01T09:52:10;97694.69;;;24.79;31.97
19884;BME280;10104;50.732;10.174;2023-05-01T09:54:32;97692.03;;;25.03;30.93
19884;BME280;10104;50.732;10.174;2023-05-01T09:56:53;97687.63;;;25.12;30.04
19884;BME280;10104;50.732;10.174;2023-05-01T09:59:19;97690.56;;;25.39;29.82
19884;BME280;10104;50.732;10.174;2023-05-01T10:01:45;97686.34;;;25.52;30.14
19884;BME280;10104;50.732;10.174;2023-05-01T10:04:08;97685.78;;;25.78;29.87
19884;BME280;10104;50.732;10.174;2023-05-01T10:06:30;97679.34;;;26.12;29.56
19884;BME280;10104;50.732;10.174;2023-05-01T10:08:52;97678.63;;;26.44;28.49
19884;BME280;10104;50.732;10.174;2023-05-01T10:11:15;97680.28;;;26.77;28.33
19884;BME280;10104;50.732;10.174;2023-05-01T10:13:36;97680.22;;;26.64;27.16
19884;BME280;10104;50.732;10.174;2023-05-01T10:15:58;97681.38;;;26.25;28.05
19884;BME280;10104;50.732;10.174;2023-05-01T10:18:21;97677.28;;;25.66;26.85
19884;BME280;10104;50.732;10.174;2023-05-01T10:20:44;97682.41;;;25.87;28.24
19884;BME280;10104;50.732;10.174;2023-05-01T10:23:05;97672.53;;;26.14;28.77
19884;BME280;10104;50.732;10.174;2023-05-01T10:25:27;97670.13;;;26.50;28.35
19884;BME280;10104;50.732;10.174;2023-05-01T10:27:50;97671.69;;;26.70;27.55
19884;BME280;10104;50.732;10.174;2023-05-01T10:30:13;97671.59;;;27.08;28.22
19884;BME280;10104;50.732;10.174;2023-05-01T10:32:37;97668.91;;;27.35;27.14
19884;BME280;10104;50.732;10.174;2023-05-01T10:35:08;97663.75;;;27.06;27.87
19884;BME280;10104;50.732;10.174;2023-05-01T10:37:40;97671.66;;;27.76;27.47
19884;BME280;10104;50.732;10.174;2023-05-01T10:45:45;97657.41;;;28.73;26.38
19884;BME280;10104;50.732;10.174;2023-05-01T10:48:07;97663.75;;;28.82;25.92
19884;BME280;10104;50.732;10.174;2023-05-01T10:50:28;97659.09;;;28.61;26.47
19884;BME280;10104;50.732;10.174;2023-05-01T10:55:38;97652.16;;;28.32;25.83
19884;BME280;10104;50.732;10.174;2023-05-01T10:57:59;97647.19;;;28.34;27.31
19884;BME280;10104;50.732;10.174;2023-05-01T11:00:21;97642.25;;;28.36;26.64
19884;BME280;10104;50.732;10.174;2023-05-01T11:02:42;97639.84;;;27.99;26.85
19884;BME280;10104;50.732;10.174;2023-05-01T11:05:04;97636.31;;;27.85;26.69
19884;BME280;10104;50.732;10.174;2023-05-01T11:07:26;97636.06;;;27.72;26.39
19884;BME280;10104;50.732;10.174;2023-05-01T11:09:53;97636.59;;;26.87;26.51
19884;BME280;10104;50.732;10.174;2023-05-01T11:12:53;97635.03;;;27.41;25.60
19884;BME280;10104;50.732;10.174;2023-05-01T11:15:26;97631.16;;;26.87;26.05
19884;BME280;10104;50.732;10.174;2023-05-01T11:17:47;97634.28;;;26.48;26.54
19884;BME280;10104;50.732;10.174;2023-05-01T11:22:33;97625.66;;;26.46;26.54
19884;BME280;10104;50.732;10.174;2023-05-01T11:24:55;97622.72;;;26.05;25.84
19884;BME280;10104;50.732;10.174;2023-05-01T11:27:17;97625.41;;;25.68;26.90
19884;BME280;10104;50.732;10.174;2023-05-01T11:29:39;97622.06;;;25.76;27.93
19884;BME280;10104;50.732;10.174;2023-05-01T11:32:01;97629.28;;;25.62;29.59
19884;BME280;10104;50.732;10.174;2023-05-01T11:34:23;97629.22;;;25.43;28.96
19884;BME280;10104;50.732;10.174;2023-05-01T11:36:47;97630.94;;;25.15;28.75
19884;BME280;10104;50.732;10.174;2023-05-01T11:39:13;97621.88;;;25.25;29.63
19884;BME280;10104;50.732;10.174;2023-05-01T11:41:35;97616.88;;;25.56;29.05
19884;BME280;10104;50.732;10.174;2023-05-01T11:43:57;97619.88;;;25.78;28.44
19884;BME280;10104;50.732;10.174;2023-05-01T11:46:29;97612.00;;;25.95;28.16
19884;BME280;10104;50.732;10.174;2023-05-01T11:48:51;97621.94;;;25.67;27.18
19884;BME280;10104;50.732;10.174;2023-05-01T11:51:12;97620.81;;;25.68;27.11
19884;BME280;10104;50.732;10.174;2023-05-01T11:53:34;97619.69;;;25.27;27.32
19884;BME280;10104;50.732;10.174;2023-05-01T11:55:55;97614.31;;;24.98;27.46
19884;BME280;10104;50.732;10.174;2023-05-01T11:58:17;97613.22;;;24.70;27.48
19884;BME280;10104;50.732;10.174;2023-05-01T12:00:50;97617.78;;;24.46;28.10
19884;BME280;10104;50.732;10.174;2023-05-01T12:03:13;97619.00;;;24.30;27.96
19884;BME280;10104;50.732;10.174;2023-05-01T12:05:37;97614.34;;;24.35;28.33
19884;BME280;10104;50.732;10.174;2023-05-01T12:08:15;97610.88;;;24.30;28.46
19884;BME280;10104;50.732;10.174;2023-05-01T12:10:42;97612.50;;;24.59;28.08
19884;BME280;10104;50.732;10.174;2023-05-01T12:13:06;97613.84;;;24.62;27.86
19884;BME280;10104;50.732;10.174;2023-05-01T12:15:28;97607.28;;;24.97;27.53
19884;BME280;10104;50.732;10.174;2023-05-01T12:17:49;97614.06;;;25.00;27.07
19884;BME280;10104;50.732;10.174;2023-05-01T12:20:12;97612.38;;;24.75;26.14
19884;BME280;10104;50.732;10.174;2023-05-01T12:22:34;97605.38;;;25.21;26.83
19884;BME280;10104;50.732;10.174;2023-05-01T12:24:55;97610.47;;;25.70;27.56
19884;BME280;10104;50.732;10.174;2023-05-01T12:27:18;97605.63;;;26.24;27.51
19884;BME280;10104;50.732;10.174;2023-05-01T12:29:40;97601.88;;;26.38;27.29
19884;BME280;10104;50.732;10.174;2023-05-01T12:32:02;97603.94;;;26.09;26.07
19884;BME280;10104;50.732;10.174;2023-05-01T12:34:28;97601.31;;;26.55;26.24
19884;BME280;10104;50.732;10.174;2023-05-01T12:36:52;97605.31;;;26.44;26.95
19884;BME280;10104;50.732;10.174;2023-05-01T12:39:15;97604.03;;;26.04;25.66
19884;BME280;10104;50.732;10.174;2023-05-01T12:41:45;97612.47;;;25.41;27.16
19884;BME280;10104;50.732;10.174;2023-05-01T12:44:17;97606.34;;;24.54;26.73
19884;BME280;10104;50.732;10.174;2023-05-01T12:46:39;97605.03;;;24.46;27.75
19884;BME280;10104;50.732;10.174;2023-05-01T12:49:01;97605.78;;;24.23;28.00
19884;BME280;10104;50.732;10.174;2023-05-01T12:51:23;97600.38;;;24.18;28.74
19884;BME280;10104;50.732;10.174;2023-05-01T12:53:44;97607.94;;;23.82;28.32
19884;BME280;10104;50.732;10.174;2023-05-01T12:56:06;97602.31;;;23.73;29.43
19884;BME280;10104;50.732;10.174;2023-05-01T12:58:35;97594.59;;;23.42;27.77
19884;BME280;10104;50.732;10.174;2023-05-01T13:00:57;97604.13;;;23.88;29.13
19884;BME280;10104;50.732;10.174;2023-05-01T13:03:25;97598.56;;;23.69;28.77